Ryde, United Kingdom
Current Conditions -  °F | °C
As of 9:20 AM on Thursday 25 Dec 2014 (Local Time) from EGHH Reporting Station
Clear Clear  
Wind Chill: 39°   Ceiling: Unl
Heat Index: 39°   Visibility: 6mi
Dew Point: 37°   Wind: 1mph
Humidity: 93%   Direction: 330°NNW
Pressure: 30.42"   Gusts: NA
Location:  50.73°N, 1.16°W
Report Text: EGHH 250920Z 33001KT CAVOK 04/03 Q1030
Loading
Personal Weather Stations






























Interactive Weather Map New forecast layout! Learn more

10-Day Weather Forecast

Advertisements
Track Severe Weather on mobile